Peotone Weather

Nearby METAR Reports

 

KIGQ - Lansing, Illinois, USA
Distance from station: NE 19mi, 30km
Updated: Sat, 23-Sep-2017 2:55pm CDT
Clear
Clear
 Wind from calm
Wind: Calm
Temperature: 91°F , 33°C
Heat Index: 95°F , 35°C
Dew Point: 68°F , 20°C
Humidity: 46%
Barometer: 30.06 inHg , 1017.9 hPa
Clouds: Clear
Visibility: 10 miles , 16 km
2017/09/23 19:55 KIGQ 231955Z AUTO 00000KT 10SM CLR 33/20 A3006 RMK AO2 T03300198
KIKK - Kankakee, Illinois, USA
Distance from station: S 19mi, 30km
Updated: Sat, 23-Sep-2017 2:55pm CDT
Clear
Clear
 Wind from SSW
Wind: SSW 3 mph , 6 km/h
Temperature: 91°F , 33°C
Dew Point: 63°F , 17°C
Humidity: 38%
Barometer: 30.06 inHg , 1017.9 hPa
Clouds: Clear
Visibility: 10 miles , 16 km
2017/09/23 19:55 KIKK 231955Z AUTO 21003KT 10SM CLR 33/17 A3006 RMK AO2 T03300174
 
KSJC - Joliet, Illinois, USA
Distance from station: WNW 24mi, 38km
Updated: Sat, 23-Sep-2017 2:53pm CDT
Clear
Clear
 Wind from WNW
Wind: WNW 9 mph , 15 km/h
Temperature: 75°F , 24°C
Dew Point: 36°F , 2°C
Humidity: 24%
Barometer: 29.92 inHg , 1013.2 hPa
Clouds: Clear
Visibility: 10 miles , 16 km
2017/09/23 19:53 KSJC 231953Z 29008KT 270V340 10SM CLR 24/02 A2992 RMK AO2 SLP130 T02390017 $
KLOT - Romeoville, Illinois, USA
Distance from station: NW 26mi, 41km
Updated: Sat, 23-Sep-2017 2:55pm CDT
Clear
Clear
 Wind from SE
Wind: SE 6 mph , 9 km/h
Temperature: 93°F , 34°C
Dew Point: 63°F , 17°C
Humidity: 36%
Barometer: 30.05 inHg , 1017.6 hPa
Clouds: Clear
Visibility: 10 miles , 16 km
2017/09/23 19:55 KLOT 231955Z AUTO 14005KT 10SM CLR 34/17 A3005 RMK AO2 T03370172
 
KMDW - Midway Airport Chicago, Illinois, USA
Distance from station: N 31mi, 50km
Updated: Sat, 23-Sep-2017 2:53pm CDT
Partly cloudy
Partly cloudy
 Wind from ENE
Wind: ENE 13 mph , 20 km/h
Temperature: 93°F , 34°C
Heat Index: 96°F , 36°C
Dew Point: 66°F , 19°C
Humidity: 41%
Barometer: 30.05 inHg , 1017.6 hPa
Clouds: Partly cloudy
Visibility: 10 miles , 16 km
Cloud details: Partly cloudy 6500 ft
2017/09/23 19:53 KMDW 231953Z 07011KT 10SM SCT065 34/19 A3005 RMK AO2 SLP161 T03390189
KC09 - Morris, Illinois, USA
Distance from station: W 34mi, 54km
Updated: Sat, 23-Sep-2017 2:55pm CDT
Clear
Clear
 Wind from SE
Wind: SE 7 mph , 11 km/h
Temperature: 93°F , 34°C
Dew Point: 63°F , 17°C
Humidity: 36%
Barometer: 30.04 inHg , 1017.3 hPa
Clouds: Clear
Visibility: 10 miles , 16 km
2017/09/23 19:55 KC09 231955Z AUTO 13006KT 10SM CLR 34/17 A3004 RMK AO2 T03350170

Metar display script from Saratoga-Weather.org